Main page
METAR-TAF:

METAR-TAF

Airports :

Cascais Municipal Aerodrome

Cascais, Portugal

latitude: 38-43-32N, longitude: 009-21-19W, elevation: 99 m

Current weather observation

The report was made 22 minutes ago, at 10:00 UTC
Wind 5 kt from the East, varying between East/Northeast and East/Southeast
Temperature 14°C
Humidity 94%
Pressure 1004 hPa
Visibility: 9000 m
Few clouds at a height of 600 ft
fog in vicinity

METAR: LPCS 191000Z 09005KT 060V120 9000 VCFG FEW006 14/13 Q1004

Time: 10:22 (10:22 UTC)

Forecast

The report was made 1 hour and 28 minutes ago, at 08:54 UTC
Forecast valid from 19 at 09 UTC to 19 at 18 UTC
Wind 3 kt from variable directions
Visibility 10 km or more
Scattered clouds at a height of 1500 ft
Becoming
from 19 at 09 UTC to 19 at 12 UTC
Wind 10 kt from the South/Southwest
Scattered clouds at a height of 2000 ft

TAF: LPCS 190854Z 1909/1918 VRB03KT 9999 SCT015 BECMG 1909/1912 20010KT SCT020

Weather observations and forecasts of more than 4000 airports (METAR and TAF reports).

The available stations are represented by yellow and red dots on the map.

Hover mouse over dot to see the name of the station.

Then click to see weather observations and forecasts.

To change the map : click on the green buttons with a black cross to zoom in, on the green button with a dash to zoom out, or on the green arrows for adjacent maps.


METAR-TAF: